| time (UTC) | temp C | wind direction | speed KPH | gust KPH | rain 1hr cm | rain 24hr cm | rain mn cm | humidity % | barometer mb |
| 20260503053037 | 15 | 139 | 8.0 | 12.9 | 0.00 | 0.00 | 0.00 | 37 | 1010.4 |
| 20260503051526 | 13 | 0 | 1.6 | 8.0 | 0.00 | 0.00 | 0.00 | 47 | 1010.7 |
| 20260503050028 | 15 | 139 | 3.2 | 4.8 | 0.00 | 0.00 | 0.00 | 42 | 1010.7 |
| 20260503044525 | 17 | 139 | 3.2 | 6.4 | 0.00 | 0.00 | 0.00 | 31 | 1010.6 |
| 20260503043029 | 17 | 139 | 4.8 | 8.0 | 0.00 | 0.00 | 0.00 | 29 | 1010.4 |
| 20260503041530 | 17 | 139 | 4.8 | 6.4 | 0.00 | 0.00 | 0.00 | 28 | 1010.3 |
| 20260503040035 | 17 | 139 | 3.2 | 4.8 | 0.00 | 0.00 | 0.00 | 28 | 1010.6 |
| 20260503034528 | 18 | 139 | 1.6 | 3.2 | 0.00 | 0.00 | 0.00 | 27 | 1010.4 |
| 20260503033030 | 18 | 139 | 1.6 | 3.2 | 0.00 | 0.00 | 0.00 | 26 | 1010.4 |
| 20260503031528 | 18 | 0 | 0.0 | 1.6 | 0.00 | 0.00 | 0.00 | 26 | 1010.2 |
| 20260503030029 | 19 | 139 | 0.0 | 1.6 | 0.00 | 0.00 | 0.00 | 26 | 1010.2 |
| 20260503024528 | 19 | 139 | 0.0 | 1.6 | 0.00 | 0.00 | 0.00 | 26 | 1010.3 |
| 20260503023027 | 19 | 0 | 0.0 | 6.4 | 0.00 | 0.00 | 0.00 | 26 | 1010.2 |
| 20260503021527 | 19 | 139 | 3.2 | 9.7 | 0.00 | 0.00 | 0.00 | 27 | 1010.3 |
| 20260503020026 | 19 | 139 | 4.8 | 14.5 | 0.00 | 0.00 | 0.00 | 28 | 1010.3 |
| 20260503014527 | 19 | 139 | 8.0 | 12.9 | 0.00 | 0.00 | 0.00 | 28 | 1010.4 |
| 20260503013029 | 19 | 139 | 11.3 | 19.3 | 0.00 | 0.00 | 0.00 | 28 | 1010.8 |
| 20260503011526 | 20 | 139 | 9.7 | 17.7 | 0.00 | 0.00 | 0.00 | 30 | 1011.0 |
| 20260503010031 | 19 | 139 | 9.7 | 16.1 | 0.00 | 0.00 | 0.00 | 31 | 1010.9 |
| 20260503004530 | 20 | 139 | 6.4 | 11.3 | 0.00 | 0.00 | 0.00 | 30 | 1010.9 |
| 20260503003030 | 19 | 139 | 8.0 | 22.5 | 0.00 | 0.00 | 0.00 | 32 | 1011.2 |
| 20260503001529 | 20 | 139 | 12.9 | 24.1 | 0.00 | 0.00 | 0.00 | 27 | 1011.4 |
| 20260503000026 | 21 | 139 | 8.0 | 17.7 | 0.00 | 0.00 | 0.00 | 28 | 1011.7 |
| 20260502234539 | 20 | 139 | 12.9 | 25.7 | 0.00 | 0.00 | 0.00 | 29 | 1012.1 |
| 20260502233027 | 20 | 139 | 11.3 | 22.5 | 0.00 | 0.00 | 0.00 | 29 | 1012.2 |
| 20260502231526 | 20 | 139 | 12.9 | 25.7 | 0.00 | 0.00 | 0.00 | 30 | 1012.6 |
| 20260502230028 | 20 | 139 | 9.7 | 22.5 | 0.00 | 0.00 | 0.00 | 29 | 1012.7 |
| 20260502224529 | 20 | 139 | 8.0 | 14.5 | 0.00 | 0.00 | 0.00 | 30 | 1013.0 |
| 20260502223026 | 20 | 139 | 9.7 | 22.5 | 0.00 | 0.00 | 0.00 | 29 | 1013.5 |
| 20260502221528 | 20 | 139 | 8.0 | 16.1 | 0.00 | 0.00 | 0.00 | 30 | 1013.7 |
| 20260502220030 | 19 | 139 | 11.3 | 19.3 | 0.00 | 0.00 | 0.00 | 30 | 1014.0 |
| 20260502214538 | 19 | 139 | 14.5 | 25.7 | 0.00 | 0.00 | 0.00 | 32 | 1014.2 |
| 20260502213026 | 19 | 139 | 8.0 | 19.3 | 0.00 | 0.00 | 0.00 | 31 | 1014.4 |
| 20260502211534 | 18 | 139 | 4.8 | 22.5 | 0.00 | 0.00 | 0.00 | 31 | 1014.7 |
| 20260502210031 | 19 | 139 | 8.0 | 17.7 | 0.00 | 0.00 | 0.00 | 30 | 1015.0 |
| 20260502204526 | 18 | 139 | 3.2 | 17.7 | 0.00 | 0.00 | 0.00 | 31 | 1015.1 |
| 20260502203028 | 18 | 139 | 8.0 | 14.5 | 0.00 | 0.00 | 0.00 | 32 | 1015.3 |
| 20260502201526 | 18 | 139 | 9.7 | 29.0 | 0.00 | 0.00 | 0.00 | 30 | 1015.8 |
| 20260502200026 | 18 | 140 | 14.5 | 20.9 | 0.00 | 0.00 | 0.00 | 33 | 1016.0 |
| 20260502194525 | 17 | 140 | 9.7 | 19.3 | 0.00 | 0.00 | 0.00 | 32 | 1016.3 |
| 20260502193028 | 18 | 140 | 4.8 | 12.9 | 0.00 | 0.00 | 0.00 | 32 | 1016.5 |
| 20260502191526 | 17 | 140 | 9.7 | 17.7 | 0.00 | 0.00 | 0.00 | 32 | 1016.6 |
| 20260502190032 | 17 | 140 | 8.0 | 16.1 | 0.00 | 0.00 | 0.00 | 34 | 1017.0 |
| 20260502184527 | 17 | 140 | 3.2 | 9.7 | 0.00 | 0.00 | 0.00 | 34 | 1017.2 |
| 20260502183025 | 16 | 140 | 1.6 | 8.0 | 0.00 | 0.00 | 0.00 | 35 | 1017.4 |
| 20260502181534 | 16 | 140 | 3.2 | 11.3 | 0.00 | 0.00 | 0.00 | 36 | 1017.5 |
| 20260502163028 | 14 | 140 | 3.2 | 9.7 | 0.00 | 0.00 | 0.00 | 44 | 1018.8 |
| 20260502161527 | 13 | 140 | 1.6 | 8.0 | 0.00 | 0.00 | 0.00 | 44 | 1018.9 |
| 20260502151526 | 12 | 140 | 1.6 | 3.2 | 0.00 | 0.00 | 0.00 | 52 | 1019.5 |
| 20260502123028 | 3 | 0 | 0.0 | 0.0 | 0.00 | 0.00 | 0.00 | 77 | 1019.6 |
| 20260502121538 | 3 | 0 | 0.0 | 0.0 | 0.00 | 0.00 | 0.00 | 78 | 1019.5 |
| 20260502114528 | 3 | 0 | 0.0 | 0.0 | 0.00 | 0.00 | 0.00 | 78 | 1019.4 |
| 20260502113026 | 3 | 0 | 0.0 | 0.0 | 0.00 | 0.00 | 0.00 | 78 | 1019.5 |
| 20260502111532 | 3 | 0 | 0.0 | 0.0 | 0.00 | 0.00 | 0.00 | 76 | 1019.5 |
| 20260502110033 | 4 | 0 | 0.0 | 0.0 | 0.00 | 0.00 | 0.00 | 70 | 1019.5 |
| 20260502104528 | 5 | 140 | 0.0 | 3.2 | 0.00 | 0.00 | 0.00 | 67 | 1019.4 |
| 20260502103026 | 6 | 140 | 3.2 | 4.8 | 0.00 | 0.00 | 0.00 | 68 | 1019.4 |
| 20260502101526 | 5 | 0 | 0.0 | 0.0 | 0.00 | 0.00 | 0.00 | 74 | 1019.4 |
| 20260502091527 | 6 | 0 | 0.0 | 0.0 | 0.00 | 0.00 | 0.00 | 67 | 1019.4 |
| 20260502071528 | 8 | 0 | 0.0 | 3.2 | 0.00 | 0.00 | 0.00 | 64 | 1019.0 |
| 20260502070027 | 8 | 140 | 1.6 | 3.2 | 0.00 | 0.00 | 0.00 | 63 | 1018.9 |
| 20260502064531 | 8 | 140 | 1.6 | 3.2 | 0.00 | 0.00 | 0.00 | 64 | 1018.9 |
| 20260502063031 | 8 | 0 | 0.0 | 0.0 | 0.00 | 0.00 | 0.00 | 64 | 1018.9 |
| 20260502061526 | 8 | 140 | 0.0 | 1.6 | 0.00 | 0.00 | 0.00 | 64 | 1018.9 |
| 20260502060027 | 9 | 140 | 1.6 | 3.2 | 0.00 | 0.00 | 0.00 | 63 | 1018.8 |
| 20260502054533 | 9 | 140 | 1.6 | 3.2 | 0.00 | 0.00 | 0.00 | 63 | 1018.8 |